Map

Track Data

SID SEASON NUMBER BASIN SUBBASIN NAME ISO_TIME NATURE LAT LON WMO_WIND WMO_PRES WMO_AGENCY TRACK_TYPE DIST2LAND LANDFALL IFLAG USA_AGENCY USA_ATCF_ID USA_LAT USA_LON USA_RECORD USA_STATUS USA_WIND USA_PRES USA_SSHS USA_R34_NE USA_R34_SE USA_R34_SW USA_R34_NW USA_R50_NE USA_R50_SE USA_R50_SW USA_R50_NW USA_R64_NE USA_R64_SE USA_R64_SW USA_R64_NW USA_POCI USA_ROCI USA_RMW USA_EYE TOKYO_LAT TOKYO_LON TOKYO_GRADE TOKYO_WIND TOKYO_PRES TOKYO_R50_DIR TOKYO_R50_LONG TOKYO_R50_SHORT TOKYO_R30_DIR TOKYO_R30_LONG TOKYO_R30_SHORT TOKYO_LAND CMA_LAT CMA_LON CMA_CAT CMA_WIND CMA_PRES HKO_LAT HKO_LON HKO_CAT HKO_WIND HKO_PRES NEWDELHI_LAT NEWDELHI_LON NEWDELHI_GRADE NEWDELHI_WIND NEWDELHI_PRES NEWDELHI_CI NEWDELHI_DP NEWDELHI_POCI REUNION_LAT REUNION_LON REUNION_TYPE REUNION_WIND REUNION_PRES REUNION_TNUM REUNION_CI REUNION_RMW REUNION_R34_NE REUNION_R34_SE REUNION_R34_SW REUNION_R34_NW REUNION_R50_NE REUNION_R50_SE REUNION_R50_SW REUNION_R50_NW REUNION_R64_NE REUNION_R64_SE REUNION_R64_SW REUNION_R64_NW BOM_LAT BOM_LON BOM_TYPE BOM_WIND BOM_PRES BOM_TNUM BOM_CI BOM_RMW BOM_R34_NE BOM_R34_SE BOM_R34_SW BOM_R34_NW BOM_R50_NE BOM_R50_SE BOM_R50_SW BOM_R50_NW BOM_R64_NE BOM_R64_SE BOM_R64_SW BOM_R64_NW BOM_ROCI BOM_POCI BOM_EYE BOM_POS_METHOD BOM_PRES_METHOD NADI_LAT NADI_LON NADI_CAT NADI_WIND NADI_PRES WELLINGTON_LAT WELLINGTON_LON WELLINGTON_WIND WELLINGTON_PRES DS824_LAT DS824_LON DS824_STAGE DS824_WIND DS824_PRES TD9636_LAT TD9636_LON TD9636_STAGE TD9636_WIND TD9636_PRES TD9635_LAT TD9635_LON TD9635_WIND TD9635_PRES TD9635_ROCI NEUMANN_LAT NEUMANN_LON NEUMANN_CLASS NEUMANN_WIND NEUMANN_PRES MLC_LAT MLC_LON MLC_CLASS MLC_WIND MLC_PRES USA_GUST BOM_GUST BOM_GUST_PER REUNION_GUST REUNION_GUST_PER USA_SEAHGT USA_SEARAD_NE USA_SEARAD_SE USA_SEARAD_SW USA_SEARAD_NW STORM_SPEED STORM_DIR
1882041S15068 1882 5 SI MM NOT_NAMED 1882-02-10 00:00:00 TS -14.5000 68.1000 main 1269 1196 _________O____ -1 -14.5000 68.1000 TC 13 243
1882041S15068 1882 5 SI MM NOT_NAMED 1882-02-10 03:00:00 TS -14.8028 67.4979 main 1196 1123 _________P____ -1 -14.8028 67.4979 TC 13 243
1882041S15068 1882 5 SI MM NOT_NAMED 1882-02-10 06:00:00 TS -15.1000 66.9000 main 1123 1051 _________O____ -1 -15.1000 66.9000 TC 13 243
1882041S15068 1882 5 SI MM NOT_NAMED 1882-02-10 09:00:00 TS -15.3923 66.3072 main 1051 979 _________P____ -1 -15.3923 66.3072 TC 13 243
1882041S15068 1882 5 SI MM NOT_NAMED 1882-02-10 12:00:00 TS -15.7000 65.7000 main 979 906 _________O____ -1 -15.7000 65.7000 TC 14 242
1882041S15068 1882 5 SI MM NOT_NAMED 1882-02-10 15:00:00 TS -16.0424 65.0499 main 897 819 _________P____ -1 -16.0424 65.0499 TC 14 241
1882041S15068 1882 5 SI MM NOT_NAMED 1882-02-10 18:00:00 TS -16.4000 64.4000 main 819 747 _________O____ -1 -16.4000 64.4000 TC 14 240
1882041S15068 1882 5 SI MM NOT_NAMED 1882-02-10 21:00:00 TS -16.7498 63.7848 main 747 669 _________P____ -1 -16.7498 63.7848 TC 13 239
1882041S15068 1882 5 SI MM NOT_NAMED 1882-02-11 00:00:00 TS -17.1000 63.2000 main 669 606 _________O____ -1 -17.1000 63.2000 TC 13 238
1882041S15068 1882 5 SI MM NOT_NAMED 1882-02-11 03:00:00 TS -17.4423 62.6422 main 597 529 _________P____ -1 -17.4423 62.6422 TC 13 236
1882041S15068 1882 5 SI MM NOT_NAMED 1882-02-11 06:00:00 TS -17.8000 62.1000 main 529 461 _________O____ -1 -17.8000 62.1000 TC 13 234
1882041S15068 1882 5 SI MM NOT_NAMED 1882-02-11 09:00:00 TS -18.1923 61.5573 main 461 384 _________P____ -1 -18.1923 61.5573 TC 13 233
1882041S15068 1882 5 SI MM NOT_NAMED 1882-02-11 12:00:00 TS -18.6000 61.0000 main 384 308 _________O____ -1 -18.6000 61.0000 TC 14 234
1882041S15068 1882 5 SI MM NOT_NAMED 1882-02-11 15:00:00 TS -18.9924 60.3997 main 308 232 _________P____ -1 -18.9924 60.3997 TC 14 235
1882041S15068 1882 5 SI MM NOT_NAMED 1882-02-11 18:00:00 TS -19.4000 59.8000 main 232 166 _________O____ -1 -19.4000 59.8000 TC 14 232
1882041S15068 1882 5 SI MM NOT_NAMED 1882-02-11 21:00:00 TS -19.8498 59.2423 main 156 93 _________P____ -1 -19.8498 59.2423 TC 14 229
1882041S15068 1882 5 SI MM NOT_NAMED 1882-02-12 00:00:00 TS -20.3000 58.7000 main 93 53 _________O____ -1 -20.3000 58.7000 TC 13 230
1882041S15068 1882 5 SI MM NOT_NAMED 1882-02-12 03:00:00 TS -20.6998 58.1496 main 47 45 _________P____ -1 -20.6998 58.1496 TC 13 232
1882041S15068 1882 5 SI MM NOT_NAMED 1882-02-12 06:00:00 TS -21.1000 57.6000 main 67 67 _________O____ -1 -21.1000 57.6000 TC 13 231
1882041S15068 1882 5 SI MM NOT_NAMED 1882-02-12 09:00:00 TS -21.5424 57.0423 main 116 106 _________P____ -1 -21.5424 57.0423 TC 14 229
1882041S15068 1882 5 SI MM NOT_NAMED 1882-02-12 12:00:00 TS -22.0000 56.5000 main 106 106 _________O____ -1 -22.0000 56.5000 TC 13 227
1882041S15068 1882 5 SI MM NOT_NAMED 1882-02-12 15:00:00 TS -22.4498 55.9847 main 119 119 _________P____ -1 -22.4498 55.9847 TC 13 226
1882041S15068 1882 5 SI MM NOT_NAMED 1882-02-12 18:00:00 TS -22.9000 55.5000 main 168 168 _________O____ -1 -22.9000 55.5000 TC 12 224
1882041S15068 1882 5 SI MM NOT_NAMED 1882-02-12 21:00:00 TS -23.3272 55.0493 main 221 221 _________P____ -1 -23.3272 55.0493 TC 12 223
1882041S15068 1882 5 SI MM NOT_NAMED 1882-02-13 00:00:00 TS -23.8000 54.6000 main 287 287 _________O____ -1 -23.8000 54.6000 TC 14 220
1882041S15068 1882 5 SI MM NOT_NAMED 1882-02-13 03:00:00 TS -24.3776 54.0926 main 367 367 _________P____ -1 -24.3776 54.0926 TC 15 217
1882041S15068 1882 5 SI MM NOT_NAMED 1882-02-13 06:00:00 TS -25.0000 53.6000 main 448 448 _________O____ -1 -25.0000 53.6000 TC 15 214
1882041S15068 1882 5 SI MM NOT_NAMED 1882-02-13 09:00:00 TS -25.5848 53.1842 main 526 526 _________P____ -1 -25.5848 53.1842 TC 14 211
1882041S15068 1882 5 SI MM NOT_NAMED 1882-02-13 12:00:00 TS -26.2000 52.8000 main 583 566 _________O____ -1 -26.2000 52.8000 TC 15 209
1882041S15068 1882 5 SI MM NOT_NAMED 1882-02-13 15:00:00 TS -26.8850 52.3923 main 570 560 _________P____ -1 -26.8850 52.3923 TC 16 207
1882041S15068 1882 5 SI MM NOT_NAMED 1882-02-13 18:00:00 TS -27.6000 52.0000 main 567 564 _________O____ -1 -27.6000 52.0000 TC 16 205
1882041S15068 1882 5 SI MM NOT_NAMED 1882-02-13 21:00:00 TS -28.3051 51.6407 main 579 579 _________P____ -1 -28.3051 51.6407 TC 15 204
1882041S15068 1882 5 SI MM NOT_NAMED 1882-02-14 00:00:00 TS -29.0000 51.3000 main 608 _________O____ -1 -29.0000 51.3000 TC 15 203

About IBTrACS Database

This database is a web-friendly format of International Best Track Archive for Climate Stewardship (IBTrACS), a global best track data archive curated by NOAA dating back to 1842.

Updated: 2021-12-03